EW3560 Weather Reports


Display with metric or nautical units.
time (UTC)temp
F
wind
direction
speed
MPH
gust
MPH
rain 1hr
in
rain 24hr
in
rain mn
in
humidity
%
barometer
mb
20181120222636 37 1 0.0 1.0 0.00 0.39 0.39 69 1011.1
20181120221737 37 1 1.0 2.0 0.00 0.39 0.39 69 1011.1
20181120220837 36 1 1.0 2.0 0.00 0.39 0.39 69 1011.3
20181120215936 36 1 1.0 2.0 0.00 0.39 0.39 69 1011.0
20181120215037 36 1 0.0 2.0 0.00 0.39 0.39 69 1011.2
20181120214137 36 1 0.0 1.0 0.00 0.39 0.39 69 1011.2
20181120213236 36 1 0.0 1.0 0.00 0.39 0.39 69 1011.1
20181120212337 36 1 0.0 1.0 0.00 0.39 0.39 68 1011.1
20181120211437 36 1 1.0 2.0 0.00 0.39 0.39 68 1011.0
20181120210536 36 1 1.0 2.0 0.00 0.39 0.39 68 1010.9
20181120205637 36 1 1.0 2.0 0.00 0.39 0.39 68 1010.9
20181120204737 36 1 1.0 2.0 0.00 0.39 0.39 68 1010.7
20181119233926 35 80 3.0 6.0 0.00 0.07 0.00 49 1013.6
20181119233026 35 79 5.0 8.0 0.00 0.07 0.00 50 1013.8
20181119232126 35 82 5.0 8.0 0.00 0.07 0.00 51 1013.6
20181119231226 35 85 4.0 7.0 0.00 0.07 0.00 52 1013.5
20181119230326 35 90 3.0 4.0 0.00 0.07 0.00 52 1013.8
20181119225426 35 76 4.0 6.0 0.00 0.07 0.07 52 1013.7
20181119224526 35 61 5.0 11.0 0.00 0.08 0.07 52 1013.9
20181119223626 35 74 8.0 11.0 0.00 0.08 0.07 53 1014.1